createdAt,value
2023-04-07T00:00:26.236Z,393.00
2023-04-07T00:01:26.239Z,394.00
2023-04-07T00:02:26.266Z,393.00
2023-04-07T00:03:26.284Z,391.00
2023-04-07T00:04:26.346Z,391.00
2023-04-07T00:05:26.221Z,391.00
2023-04-07T00:06:26.210Z,388.00
2023-04-07T00:07:26.266Z,386.00
2023-04-07T00:08:26.209Z,387.00
2023-04-07T00:09:26.206Z,388.00
2023-04-07T00:10:26.220Z,386.00
2023-04-07T00:11:26.192Z,383.00
2023-04-07T00:12:26.190Z,385.00
2023-04-07T00:13:26.193Z,385.00
2023-04-07T00:14:26.189Z,386.00
2023-04-07T00:15:26.184Z,388.00
2023-04-07T00:16:26.202Z,387.00
2023-04-07T00:17:26.205Z,385.00
2023-04-07T00:18:26.166Z,385.00
2023-04-07T00:19:26.161Z,383.00
2023-04-07T00:20:26.218Z,381.00
2023-04-07T00:21:26.277Z,381.00
2023-04-07T00:22:26.329Z,380.00
2023-04-07T00:23:26.324Z,380.00
2023-04-07T00:24:33.963Z,381.00
2023-04-07T00:25:27.350Z,381.00
2023-04-07T00:26:26.318Z,380.00
2023-04-07T00:27:26.316Z,379.00
2023-04-07T00:28:26.333Z,381.00
2023-04-07T00:29:26.307Z,383.00
2023-04-07T00:30:26.311Z,384.00
2023-04-07T00:31:26.360Z,382.00
2023-04-07T00:32:26.334Z,381.00
2023-04-07T00:33:26.343Z,382.00
2023-04-07T00:34:26.386Z,383.00
2023-04-07T00:35:26.515Z,382.00
2023-04-07T00:36:26.503Z,382.00
2023-04-07T00:37:26.580Z,383.00
2023-04-07T00:38:26.620Z,381.00
2023-04-07T00:39:26.659Z,381.00
2023-04-07T00:40:26.730Z,380.00
2023-04-07T00:41:26.749Z,382.00
2023-04-07T00:42:26.800Z,382.00
2023-04-07T00:43:26.805Z,384.00
2023-04-07T00:44:26.838Z,383.00
2023-04-07T00:45:26.899Z,382.00
2023-04-07T00:46:26.962Z,383.00
2023-04-07T00:47:26.893Z,384.00
2023-04-07T00:48:26.878Z,384.00
2023-04-07T00:49:26.874Z,384.00
2023-04-07T00:50:26.870Z,381.00
2023-04-07T00:51:26.866Z,380.00
2023-04-07T00:52:26.868Z,378.00
2023-04-07T00:53:26.874Z,375.00
2023-04-07T00:54:26.898Z,378.00
2023-04-07T00:55:26.960Z,379.00
2023-04-07T00:56:27.010Z,381.00
2023-04-07T00:57:27.060Z,380.00
2023-04-07T00:58:27.106Z,382.00
2023-04-07T00:59:27.175Z,381.00
2023-04-07T01:00:27.245Z,382.00
2023-04-07T01:01:27.361Z,384.00
2023-04-07T01:02:27.610Z,388.00
2023-04-07T01:03:27.530Z,387.00
2023-04-07T01:04:27.439Z,390.00
2023-04-07T01:05:27.417Z,388.00
2023-04-07T01:06:27.468Z,384.00
2023-04-07T01:07:27.518Z,381.00
2023-04-07T01:08:27.563Z,378.00
2023-04-07T01:09:27.595Z,377.00
2023-04-07T01:10:27.654Z,376.00
2023-04-07T01:11:27.705Z,375.00
2023-04-07T01:12:27.775Z,375.00
2023-04-07T01:13:27.849Z,375.00
2023-04-07T01:14:27.892Z,377.00
2023-04-07T01:15:27.948Z,379.00
2023-04-07T01:16:27.979Z,380.00
2023-04-07T01:17:27.978Z,379.00
2023-04-07T01:18:27.944Z,379.00
2023-04-07T01:19:27.942Z,380.00
2023-04-07T01:20:27.949Z,379.00
2023-04-07T01:21:27.951Z,380.00
2023-04-07T01:22:27.972Z,379.00
2023-04-07T01:23:27.958Z,382.00
2023-04-07T01:24:27.947Z,382.00
2023-04-07T01:25:27.945Z,379.00
2023-04-07T01:26:27.936Z,380.00
2023-04-07T01:27:27.920Z,379.00
2023-04-07T01:28:27.920Z,379.00
2023-04-07T01:29:27.916Z,379.00
2023-04-07T01:30:27.923Z,379.00
2023-04-07T01:31:27.947Z,380.00
2023-04-07T01:32:27.933Z,382.00
2023-04-07T01:33:27.923Z,378.00
2023-04-07T01:34:27.933Z,374.00
2023-04-07T01:35:27.929Z,373.00
2023-04-07T01:36:27.925Z,374.00
2023-04-07T01:37:27.929Z,374.00
2023-04-07T01:38:27.934Z,373.00
2023-04-07T01:39:27.967Z,372.00
2023-04-07T01:40:27.934Z,375.00
2023-04-07T01:41:27.921Z,373.00
2023-04-07T01:42:27.917Z,372.00
2023-04-07T01:43:27.912Z,372.00
2023-04-07T01:44:27.929Z,372.00
2023-04-07T01:45:27.934Z,371.00
2023-04-07T01:46:27.914Z,373.00
2023-04-07T01:47:27.998Z,374.00
2023-04-07T01:48:27.917Z,376.00
2023-04-07T01:49:27.913Z,379.00
2023-04-07T01:50:27.932Z,383.00
2023-04-07T01:51:27.901Z,382.00
2023-04-07T01:52:27.904Z,381.00
2023-04-07T01:53:27.900Z,381.00
2023-04-07T01:54:27.896Z,379.00
2023-04-07T01:55:27.933Z,375.00
2023-04-07T01:56:27.900Z,379.00
2023-04-07T01:57:27.880Z,379.00
2023-04-07T01:58:27.885Z,380.00
2023-04-07T01:59:27.879Z,379.00
2023-04-07T02:00:27.872Z,379.00
2023-04-07T02:01:27.949Z,378.00
2023-04-07T02:02:28.011Z,378.00
2023-04-07T02:03:27.997Z,377.00
2023-04-07T02:04:27.855Z,377.00
2023-04-07T02:05:27.910Z,378.00
2023-04-07T02:06:27.876Z,377.00
2023-04-07T02:07:27.871Z,379.00
2023-04-07T02:08:27.866Z,377.00
2023-04-07T02:09:27.861Z,375.00
2023-04-07T02:10:27.856Z,374.00
2023-04-07T02:11:27.853Z,375.00
2023-04-07T02:12:27.856Z,375.00
2023-04-07T02:13:27.858Z,372.00
2023-04-07T02:14:27.857Z,371.00
2023-04-07T02:15:27.853Z,371.00
2023-04-07T02:16:27.872Z,369.00
2023-04-07T02:17:27.859Z,366.00
2023-04-07T02:18:27.847Z,364.00
2023-04-07T02:19:27.846Z,367.00
2023-04-07T02:20:27.854Z,369.00
2023-04-07T02:21:27.854Z,370.00
2023-04-07T02:22:27.843Z,371.00
2023-04-07T02:23:27.844Z,371.00
2023-04-07T02:24:27.853Z,370.00
2023-04-07T02:25:27.976Z,369.00
2023-04-07T02:26:27.864Z,370.00
2023-04-07T02:27:27.863Z,371.00
2023-04-07T02:28:27.862Z,372.00
2023-04-07T02:29:27.847Z,374.00
2023-04-07T02:30:27.851Z,375.00
2023-04-07T02:31:27.865Z,375.00
2023-04-07T02:32:27.894Z,373.00
2023-04-07T02:33:27.851Z,374.00
2023-04-07T02:34:27.841Z,373.00
2023-04-07T02:35:27.850Z,374.00
2023-04-07T02:36:27.868Z,378.00
2023-04-07T02:37:27.835Z,379.00
2023-04-07T02:38:27.852Z,379.00
2023-04-07T02:39:27.844Z,376.00
2023-04-07T02:40:27.846Z,375.00
2023-04-07T02:41:27.851Z,375.00
2023-04-07T02:42:27.837Z,374.00
2023-04-07T02:43:27.852Z,373.00
2023-04-07T02:44:27.837Z,372.00
2023-04-07T02:45:27.853Z,376.00
2023-04-07T02:46:27.865Z,375.00
2023-04-07T02:47:27.862Z,378.00
2023-04-07T02:48:27.848Z,379.00
2023-04-07T02:49:27.878Z,380.00
2023-04-07T02:50:27.844Z,381.00
2023-04-07T02:51:27.860Z,382.00
2023-04-07T02:52:27.866Z,380.00
2023-04-07T02:53:27.849Z,376.00
2023-04-07T02:54:27.861Z,376.00
2023-04-07T02:55:27.870Z,380.00
2023-04-07T02:56:27.846Z,382.00
2023-04-07T02:57:27.843Z,378.00
2023-04-07T02:58:27.842Z,380.00
2023-04-07T02:59:27.846Z,378.00
2023-04-07T03:00:27.847Z,382.00
2023-04-07T03:01:27.931Z,384.00
2023-04-07T03:02:27.950Z,385.00
2023-04-07T03:03:28.130Z,385.00
2023-04-07T03:04:27.913Z,384.00
2023-04-07T03:05:27.861Z,381.00
2023-04-07T03:06:27.871Z,379.00
2023-04-07T03:07:27.881Z,383.00
2023-04-07T03:08:27.936Z,384.00
2023-04-07T03:09:27.975Z,386.00
2023-04-07T03:10:28.046Z,386.00
2023-04-07T03:11:28.122Z,385.00
2023-04-07T03:12:28.197Z,383.00
2023-04-07T03:13:28.207Z,383.00
2023-04-07T03:14:28.210Z,384.00
2023-04-07T03:15:28.224Z,383.00
2023-04-07T03:16:28.256Z,386.00
2023-04-07T03:17:28.255Z,385.00
2023-04-07T03:18:28.236Z,386.00
2023-04-07T03:19:28.259Z,383.00
2023-04-07T03:20:28.266Z,381.00
2023-04-07T03:21:28.279Z,379.00
2023-04-07T03:22:28.294Z,377.00
2023-04-07T03:23:28.303Z,377.00
2023-04-07T03:24:28.320Z,380.00
2023-04-07T03:25:28.317Z,378.00
2023-04-07T03:26:28.332Z,378.00
2023-04-07T03:27:28.347Z,381.00
2023-04-07T03:28:28.351Z,380.00
2023-04-07T03:29:28.358Z,383.00
2023-04-07T03:30:28.399Z,385.00
2023-04-07T03:31:28.363Z,383.00
2023-04-07T03:32:28.381Z,382.00
2023-04-07T03:33:28.379Z,382.00
2023-04-07T03:34:28.401Z,384.00
2023-04-07T03:35:28.404Z,383.00
2023-04-07T03:36:28.418Z,384.00
2023-04-07T03:37:28.444Z,383.00
2023-04-07T03:38:28.434Z,382.00
2023-04-07T03:39:28.455Z,384.00
2023-04-07T03:40:28.469Z,385.00
2023-04-07T03:41:28.479Z,386.00
2023-04-07T03:42:28.484Z,385.00
2023-04-07T03:43:28.516Z,383.00
2023-04-07T03:44:28.522Z,383.00
2023-04-07T03:45:28.525Z,383.00
2023-04-07T03:46:28.604Z,380.00
2023-04-07T03:47:28.585Z,380.00
2023-04-07T03:48:29.328Z,378.00
2023-04-07T03:49:28.667Z,378.00
2023-04-07T03:50:28.703Z,379.00
2023-04-07T03:51:28.734Z,379.00
2023-04-07T03:52:28.737Z,384.00
2023-04-07T03:53:28.736Z,385.00
2023-04-07T03:54:28.739Z,382.00
2023-04-07T03:55:28.750Z,379.00
2023-04-07T03:56:29.112Z,381.00
2023-04-07T03:57:28.780Z,382.00
2023-04-07T03:58:28.791Z,380.00
2023-04-07T03:59:28.820Z,381.00
2023-04-07T04:00:28.814Z,384.00
2023-04-07T04:01:28.849Z,384.00
2023-04-07T04:02:28.851Z,383.00
2023-04-07T04:03:28.994Z,382.00
2023-04-07T04:04:28.945Z,381.00
2023-04-07T04:05:28.924Z,381.00
2023-04-07T04:06:28.899Z,380.00
2023-04-07T04:07:28.905Z,378.00
2023-04-07T04:08:28.937Z,380.00
2023-04-07T04:09:28.931Z,382.00
2023-04-07T04:10:28.946Z,381.00
2023-04-07T04:11:28.977Z,382.00
2023-04-07T04:12:28.978Z,386.00
2023-04-07T04:13:28.989Z,387.00
2023-04-07T04:14:28.999Z,388.00
2023-04-07T04:15:29.010Z,388.00
2023-04-07T04:16:29.102Z,392.00
2023-04-07T04:17:29.093Z,390.00
2023-04-07T04:18:29.056Z,387.00
2023-04-07T04:19:29.063Z,385.00
2023-04-07T04:20:29.077Z,385.00
2023-04-07T04:21:29.085Z,385.00
2023-04-07T04:22:29.092Z,386.00
2023-04-07T04:23:29.103Z,388.00
2023-04-07T04:24:29.132Z,386.00
2023-04-07T04:25:29.170Z,385.00
2023-04-07T04:26:29.221Z,387.00
2023-04-07T04:27:29.291Z,388.00
2023-04-07T04:28:29.339Z,390.00
2023-04-07T04:29:30.577Z,389.00
2023-04-07T04:30:29.481Z,388.00
2023-04-07T04:31:29.572Z,388.00
2023-04-07T04:32:29.619Z,389.00
2023-04-07T04:33:29.648Z,385.00
2023-04-07T04:34:29.690Z,385.00
2023-04-07T04:35:29.758Z,387.00
2023-04-07T04:36:29.886Z,388.00
2023-04-07T04:37:29.904Z,387.00
2023-04-07T04:38:29.966Z,387.00
2023-04-07T04:39:30.054Z,387.00
2023-04-07T04:40:30.123Z,388.00
2023-04-07T04:41:30.182Z,390.00
2023-04-07T04:42:30.256Z,391.00
2023-04-07T04:43:30.326Z,392.00
2023-04-07T04:44:30.361Z,391.00
2023-04-07T04:45:30.343Z,390.00
2023-04-07T04:46:30.369Z,393.00
2023-04-07T04:47:30.413Z,393.00
2023-04-07T04:48:30.377Z,392.00
2023-04-07T04:49:30.378Z,391.00
2023-04-07T04:50:30.384Z,391.00
2023-04-07T04:51:30.401Z,390.00
2023-04-07T04:52:30.410Z,389.00
2023-04-07T04:53:30.421Z,389.00
2023-04-07T04:54:30.442Z,388.00
2023-04-07T04:55:30.447Z,390.00
2023-04-07T04:56:30.451Z,390.00
2023-04-07T04:57:30.462Z,391.00
2023-04-07T04:58:30.464Z,389.00
2023-04-07T04:59:30.474Z,389.00
2023-04-07T05:00:30.481Z,391.00
2023-04-07T05:01:32.800Z,392.00
2023-04-07T05:02:30.646Z,397.00
2023-04-07T05:03:30.775Z,397.00
2023-04-07T05:04:30.742Z,397.00
2023-04-07T05:05:30.525Z,398.00
2023-04-07T05:06:30.531Z,394.00
2023-04-07T05:07:30.570Z,395.00
2023-04-07T05:08:30.547Z,394.00
2023-04-07T05:09:30.564Z,394.00
2023-04-07T05:10:30.565Z,395.00
2023-04-07T05:11:30.572Z,393.00
2023-04-07T05:12:30.584Z,391.00
2023-04-07T05:13:30.597Z,392.00
2023-04-07T05:14:30.613Z,392.00
2023-04-07T05:15:30.611Z,392.00
2023-04-07T05:16:30.623Z,391.00
2023-04-07T05:17:30.683Z,388.00
2023-04-07T05:18:30.631Z,387.00
2023-04-07T05:19:30.652Z,388.00
2023-04-07T05:20:30.655Z,387.00
2023-04-07T05:21:30.662Z,386.00
2023-04-07T05:22:30.689Z,387.00
2023-04-07T05:23:30.678Z,386.00
2023-04-07T05:24:30.695Z,387.00
2023-04-07T05:25:30.695Z,392.00
2023-04-07T05:26:30.703Z,393.00
2023-04-07T05:27:30.709Z,393.00
2023-04-07T05:28:30.715Z,391.00
2023-04-07T05:29:30.760Z,391.00
2023-04-07T05:30:30.744Z,389.00
2023-04-07T05:31:30.784Z,389.00
2023-04-07T05:32:30.827Z,390.00
2023-04-07T05:33:30.782Z,392.00
2023-04-07T05:34:30.787Z,390.00
2023-04-07T05:35:30.851Z,393.00
2023-04-07T05:36:30.935Z,399.00
2023-04-07T05:37:31.009Z,397.00
2023-04-07T05:38:31.057Z,398.00
2023-04-07T05:39:31.153Z,396.00
2023-04-07T05:40:31.174Z,396.00
2023-04-07T05:41:31.243Z,397.00
2023-04-07T05:42:31.303Z,395.00
2023-04-07T05:43:31.306Z,393.00
2023-04-07T05:44:31.321Z,396.00
2023-04-07T05:45:31.329Z,395.00
2023-04-07T05:46:31.316Z,395.00
2023-04-07T05:47:31.391Z,398.00
2023-04-07T05:48:31.326Z,397.00
2023-04-07T05:49:31.343Z,395.00
2023-04-07T05:50:31.359Z,394.00
2023-04-07T05:51:31.369Z,395.00
2023-04-07T05:52:31.385Z,392.00
2023-04-07T05:53:31.521Z,393.00
2023-04-07T05:54:31.402Z,394.00
2023-04-07T05:55:31.453Z,395.00
2023-04-07T05:56:31.538Z,393.00
2023-04-07T05:57:31.636Z,393.00
2023-04-07T05:58:31.704Z,391.00
2023-04-07T05:59:31.786Z,391.00
2023-04-07T06:00:31.866Z,392.00
2023-04-07T06:01:32.010Z,393.00
2023-04-07T06:02:32.147Z,393.00
2023-04-07T06:03:32.181Z,391.00
2023-04-07T06:04:32.133Z,389.00
2023-04-07T06:05:32.244Z,391.00
2023-04-07T06:06:32.268Z,392.00
2023-04-07T06:07:32.359Z,392.00
2023-04-07T06:08:32.449Z,389.00
2023-04-07T06:09:32.544Z,387.00
2023-04-07T06:10:32.587Z,388.00
2023-04-07T06:11:32.653Z,389.00
2023-04-07T06:12:32.704Z,391.00
2023-04-07T06:13:32.788Z,391.00
2023-04-07T06:14:32.868Z,389.00
2023-04-07T06:15:32.953Z,389.00
2023-04-07T06:16:33.108Z,386.00
2023-04-07T06:17:33.116Z,385.00
2023-04-07T06:18:33.145Z,387.00
2023-04-07T06:19:33.158Z,387.00
2023-04-07T06:20:33.173Z,388.00
2023-04-07T06:21:33.191Z,389.00
2023-04-07T06:22:33.190Z,388.00
2023-04-07T06:23:33.218Z,391.00
2023-04-07T06:24:33.218Z,391.00
2023-04-07T06:25:33.222Z,391.00
2023-04-07T06:26:33.226Z,390.00
2023-04-07T06:27:33.265Z,391.00
2023-04-07T06:28:33.325Z,391.00
2023-04-07T06:29:33.342Z,392.00
2023-04-07T06:30:33.430Z,391.00
2023-04-07T06:31:33.400Z,387.00
2023-04-07T06:32:33.449Z,389.00
2023-04-07T06:33:33.416Z,394.00
2023-04-07T06:34:33.437Z,394.00
2023-04-07T06:35:33.447Z,394.00
2023-04-07T06:36:33.461Z,394.00
2023-04-07T06:37:33.454Z,396.00
2023-04-07T06:38:33.469Z,395.00
2023-04-07T06:39:33.492Z,397.00
2023-04-07T06:40:33.478Z,394.00
2023-04-07T06:41:33.497Z,394.00
2023-04-07T06:42:33.514Z,394.00
2023-04-07T06:43:33.527Z,396.00
2023-04-07T06:44:33.531Z,396.00
2023-04-07T06:45:33.561Z,397.00
2023-04-07T06:46:33.611Z,394.00
2023-04-07T06:47:33.630Z,392.00
2023-04-07T06:48:33.597Z,392.00
2023-04-07T06:49:35.707Z,392.00
2023-04-07T06:50:33.646Z,392.00
2023-04-07T06:51:33.666Z,391.00
2023-04-07T06:52:33.674Z,390.00
2023-04-07T06:53:33.784Z,390.00
2023-04-07T06:54:33.688Z,389.00
2023-04-07T06:55:33.687Z,386.00
2023-04-07T06:56:33.705Z,385.00
2023-04-07T06:57:33.738Z,383.00
2023-04-07T06:58:33.754Z,382.00
2023-04-07T06:59:33.749Z,383.00
2023-04-07T07:00:33.776Z,382.00
2023-04-07T07:01:33.854Z,384.00
2023-04-07T07:02:33.894Z,383.00
2023-04-07T07:03:33.906Z,380.00
2023-04-07T07:04:33.857Z,378.00
2023-04-07T07:05:33.854Z,378.00
2023-04-07T07:06:33.858Z,375.00
2023-04-07T07:07:33.847Z,374.00
2023-04-07T07:08:33.885Z,377.00
2023-04-07T07:09:33.879Z,377.00
2023-04-07T07:10:33.883Z,378.00
2023-04-07T07:11:33.905Z,380.00
2023-04-07T07:12:33.907Z,379.00
2023-04-07T07:13:33.921Z,380.00
2023-04-07T07:14:33.977Z,382.00
2023-04-07T07:15:33.980Z,383.00
2023-04-07T07:16:33.976Z,385.00
2023-04-07T07:17:33.993Z,385.00
2023-04-07T07:18:33.984Z,383.00
2023-04-07T07:19:34.003Z,384.00
2023-04-07T07:20:34.012Z,386.00
2023-04-07T07:21:34.038Z,386.00
2023-04-07T07:22:34.038Z,382.00
2023-04-07T07:23:34.071Z,381.00
2023-04-07T07:24:34.066Z,380.00
2023-04-07T07:25:34.236Z,380.00
2023-04-07T07:26:34.074Z,377.00
2023-04-07T07:27:34.077Z,377.00
2023-04-07T07:28:34.107Z,379.00
2023-04-07T07:29:34.125Z,379.00
2023-04-07T07:30:34.214Z,376.00
2023-04-07T07:31:34.354Z,374.00
2023-04-07T07:32:34.372Z,377.00
2023-04-07T07:33:34.351Z,378.00
2023-04-07T07:34:34.368Z,379.00
2023-04-07T07:35:34.387Z,377.00
2023-04-07T07:36:34.393Z,378.00
2023-04-07T07:37:34.404Z,378.00
2023-04-07T07:38:36.033Z,379.00
2023-04-07T07:39:34.864Z,377.00
2023-04-07T07:40:34.648Z,376.00
2023-04-07T07:41:34.720Z,374.00
2023-04-07T07:42:34.898Z,374.00
2023-04-07T07:43:34.898Z,371.00
2023-04-07T07:44:34.932Z,371.00
2023-04-07T07:45:35.003Z,372.00
2023-04-07T07:46:35.093Z,372.00
2023-04-07T07:47:35.176Z,368.00
2023-04-07T07:48:35.215Z,367.00
2023-04-07T07:49:35.292Z,366.00
2023-04-07T07:50:35.357Z,365.00
2023-04-07T07:51:35.427Z,367.00
2023-04-07T07:52:35.486Z,365.00
2023-04-07T07:53:35.553Z,365.00
2023-04-07T07:54:35.632Z,366.00
2023-04-07T07:55:35.633Z,364.00
2023-04-07T07:56:35.635Z,367.00
2023-04-07T07:57:35.636Z,367.00
2023-04-07T07:58:35.675Z,362.00
2023-04-07T07:59:35.647Z,362.00
2023-04-07T08:00:35.658Z,361.00
2023-04-07T08:01:35.687Z,364.00
2023-04-07T08:02:35.768Z,365.00
2023-04-07T08:03:35.899Z,365.00
2023-04-07T08:04:35.778Z,369.00
2023-04-07T08:05:35.769Z,368.00
2023-04-07T08:06:35.826Z,370.00
2023-04-07T08:07:35.907Z,373.00
2023-04-07T08:08:35.944Z,370.00
2023-04-07T08:09:35.999Z,371.00
2023-04-07T08:10:36.054Z,369.00
2023-04-07T08:11:36.138Z,368.00
2023-04-07T08:12:36.156Z,369.00
2023-04-07T08:13:36.224Z,369.00
2023-04-07T08:14:36.275Z,372.00
2023-04-07T08:15:36.320Z,371.00
2023-04-07T08:16:36.401Z,368.00
2023-04-07T08:17:36.490Z,366.00
2023-04-07T08:18:36.455Z,366.00
2023-04-07T08:19:36.506Z,368.00
2023-04-07T08:20:36.544Z,366.00
2023-04-07T08:21:36.600Z,365.00
2023-04-07T08:22:36.636Z,363.00
2023-04-07T08:23:36.681Z,365.00
2023-04-07T08:24:36.716Z,363.00
2023-04-07T08:25:36.767Z,362.00
2023-04-07T08:26:36.813Z,361.00
2023-04-07T08:27:36.856Z,362.00
2023-04-07T08:28:36.897Z,362.00
2023-04-07T08:29:36.944Z,361.00
2023-04-07T08:30:36.966Z,361.00
2023-04-07T08:31:37.030Z,364.00
2023-04-07T08:32:37.068Z,364.00
2023-04-07T08:33:37.145Z,366.00
2023-04-07T08:34:37.096Z,365.00
2023-04-07T08:35:37.110Z,359.00
2023-04-07T08:36:37.159Z,360.00
2023-04-07T08:37:37.197Z,361.00
2023-04-07T08:38:37.233Z,361.00
2023-04-07T08:39:37.258Z,364.00
2023-04-07T08:40:37.309Z,367.00
2023-04-07T08:41:37.329Z,368.00
2023-04-07T08:42:37.387Z,366.00
2023-04-07T08:43:37.416Z,363.00
2023-04-07T08:44:37.468Z,365.00
2023-04-07T08:45:37.505Z,364.00
2023-04-07T08:46:37.577Z,366.00
2023-04-07T08:47:37.627Z,364.00
2023-04-07T08:48:37.628Z,364.00
2023-04-07T08:49:37.679Z,364.00
2023-04-07T08:50:37.734Z,363.00
2023-04-07T08:51:37.742Z,361.00
2023-04-07T08:52:37.785Z,358.00
2023-04-07T08:53:37.818Z,361.00
2023-04-07T08:54:37.867Z,362.00
2023-04-07T08:55:37.899Z,362.00
2023-04-07T08:56:37.948Z,362.00
2023-04-07T08:57:37.981Z,362.00
2023-04-07T08:58:38.003Z,360.00
2023-04-07T08:59:38.031Z,360.00
2023-04-07T09:00:38.027Z,360.00
2023-04-07T09:01:38.220Z,361.00
2023-04-07T09:02:38.233Z,359.00
2023-04-07T09:03:38.244Z,361.00
2023-04-07T09:04:38.277Z,361.00
2023-04-07T09:05:38.320Z,359.00
2023-04-07T09:06:38.395Z,360.00
2023-04-07T09:07:38.428Z,362.00
2023-04-07T09:08:38.455Z,362.00
2023-04-07T09:09:38.495Z,362.00
2023-04-07T09:10:38.513Z,360.00
2023-04-07T09:11:38.556Z,360.00
2023-04-07T09:12:38.583Z,360.00
2023-04-07T09:13:38.601Z,360.00
2023-04-07T09:14:38.574Z,358.00
2023-04-07T09:15:38.901Z,358.00
2023-04-07T09:16:38.708Z,360.00
2023-04-07T09:17:38.597Z,361.00
2023-04-07T09:18:38.575Z,361.00
2023-04-07T09:19:38.607Z,361.00
2023-04-07T09:20:38.584Z,360.00
2023-04-07T09:21:38.562Z,358.00
2023-04-07T09:22:38.585Z,358.00
2023-04-07T09:23:38.573Z,359.00
2023-04-07T09:24:38.555Z,361.00
2023-04-07T09:25:38.552Z,364.00
2023-04-07T09:26:38.556Z,364.00
2023-04-07T09:27:38.543Z,364.00
2023-04-07T09:28:38.542Z,364.00
2023-04-07T09:29:38.597Z,364.00
2023-04-07T09:30:38.615Z,363.00
2023-04-07T09:31:38.726Z,363.00
2023-04-07T09:32:39.025Z,364.00
2023-04-07T09:33:38.767Z,366.00
2023-04-07T09:35:38.905Z,369.00
2023-04-07T09:36:38.897Z,369.00
2023-04-07T09:37:38.934Z,367.00
2023-04-07T09:38:38.988Z,363.00
2023-04-07T09:39:38.979Z,360.00
2023-04-07T09:40:38.951Z,362.00
2023-04-07T09:41:38.978Z,363.00
2023-04-07T09:42:38.957Z,364.00
2023-04-07T09:43:38.960Z,362.00
2023-04-07T09:44:38.949Z,362.00
2023-04-07T09:45:38.924Z,360.00
2023-04-07T09:46:39.020Z,362.00
2023-04-07T09:47:38.962Z,360.00
2023-04-07T09:48:38.912Z,359.00
2023-04-07T09:49:38.907Z,358.00
2023-04-07T09:50:38.921Z,358.00
2023-04-07T09:51:38.911Z,359.00
2023-04-07T09:52:38.877Z,360.00
2023-04-07T09:53:38.878Z,360.00
2023-04-07T09:54:38.873Z,361.00
2023-04-07T09:55:38.872Z,363.00
2023-04-07T09:56:38.869Z,363.00
2023-04-07T09:57:38.884Z,363.00
2023-04-07T09:58:38.847Z,363.00
2023-04-07T09:59:38.847Z,363.00
2023-04-07T10:00:38.842Z,363.00
2023-04-07T10:01:38.884Z,365.00
2023-04-07T10:02:38.887Z,366.00
2023-04-07T10:03:38.992Z,365.00
2023-04-07T10:04:38.833Z,367.00
2023-04-07T10:05:38.803Z,366.00
2023-04-07T10:06:38.794Z,365.00
2023-04-07T10:07:39.656Z,363.00
2023-04-07T10:08:38.769Z,362.00
2023-04-07T10:09:38.770Z,362.00
2023-04-07T10:10:38.754Z,362.00
2023-04-07T10:11:38.747Z,363.00
2023-04-07T10:12:38.743Z,362.00
2023-04-07T10:13:38.737Z,359.00
2023-04-07T10:14:40.237Z,360.00
2023-04-07T10:15:38.710Z,361.00
2023-04-07T10:16:38.755Z,365.00
2023-04-07T10:17:38.753Z,367.00
2023-04-07T10:18:38.689Z,366.00
2023-04-07T10:19:38.685Z,365.00
2023-04-07T10:20:38.659Z,363.00
2023-04-07T10:21:38.652Z,363.00
2023-04-07T10:22:38.719Z,361.00
2023-04-07T10:23:38.755Z,358.00
2023-04-07T10:24:38.836Z,358.00
2023-04-07T10:25:38.896Z,356.00
2023-04-07T10:26:40.020Z,358.00
2023-04-07T10:27:39.002Z,357.00
2023-04-07T10:28:39.057Z,360.00
2023-04-07T10:29:39.110Z,357.00
2023-04-07T10:30:39.166Z,354.00
2023-04-07T10:31:39.436Z,352.00
2023-04-07T10:32:39.223Z,355.00
2023-04-07T10:33:39.187Z,357.00
2023-04-07T10:34:39.187Z,357.00
2023-04-07T10:35:39.224Z,359.00
2023-04-07T10:36:39.157Z,358.00
2023-04-07T10:37:39.178Z,358.00
2023-04-07T10:38:39.155Z,358.00
2023-04-07T10:39:39.138Z,359.00
2023-04-07T10:40:39.140Z,360.00
2023-04-07T10:41:39.194Z,360.00
2023-04-07T10:42:39.165Z,361.00
2023-04-07T10:43:39.231Z,362.00
2023-04-07T10:44:39.277Z,364.00
2023-04-07T10:45:39.346Z,363.00
2023-04-07T10:46:39.507Z,363.00
2023-04-07T10:47:39.532Z,365.00
2023-04-07T10:48:39.520Z,366.00
2023-04-07T10:49:39.560Z,364.00
2023-04-07T10:50:39.627Z,367.00
2023-04-07T10:51:39.694Z,366.00
2023-04-07T10:52:39.745Z,365.00
2023-04-07T10:53:39.812Z,366.00
2023-04-07T10:54:39.888Z,367.00
2023-04-07T10:55:39.946Z,364.00
2023-04-07T10:56:40.006Z,361.00
2023-04-07T10:57:40.050Z,362.00
2023-04-07T10:58:40.092Z,363.00
2023-04-07T10:59:40.129Z,365.00
2023-04-07T11:00:40.153Z,366.00
2023-04-07T11:01:40.261Z,366.00
2023-04-07T11:02:40.546Z,366.00
2023-04-07T11:03:40.286Z,365.00
2023-04-07T11:04:40.312Z,365.00
2023-04-07T11:05:40.306Z,365.00
2023-04-07T11:06:40.339Z,362.00
2023-04-07T11:07:40.371Z,363.00
2023-04-07T11:08:40.420Z,365.00
2023-04-07T11:09:40.417Z,363.00
2023-04-07T11:10:40.439Z,365.00
2023-04-07T11:11:40.488Z,365.00
2023-04-07T11:12:40.488Z,366.00
2023-04-07T11:13:40.517Z,367.00
2023-04-07T11:14:40.524Z,366.00
2023-04-07T11:15:41.040Z,365.00
2023-04-07T11:16:40.518Z,363.00
2023-04-07T11:17:40.540Z,361.00
2023-04-07T11:18:40.518Z,364.00
2023-04-07T11:19:40.523Z,365.00
2023-04-07T11:20:40.527Z,364.00
2023-04-07T11:21:40.539Z,366.00
2023-04-07T11:22:40.538Z,367.00
2023-04-07T11:23:40.562Z,367.00
2023-04-07T11:24:40.568Z,368.00
2023-04-07T11:25:40.566Z,366.00
2023-04-07T11:26:40.577Z,364.00
2023-04-07T11:27:40.547Z,361.00
2023-04-07T11:28:40.539Z,361.00
2023-04-07T11:29:40.543Z,360.00
2023-04-07T11:30:40.545Z,361.00
2023-04-07T11:31:40.613Z,362.00
2023-04-07T11:32:40.564Z,361.00
2023-04-07T11:33:40.562Z,361.00
2023-04-07T11:34:40.586Z,364.00
2023-04-07T11:35:40.656Z,367.00
2023-04-07T11:36:40.771Z,368.00
2023-04-07T11:37:40.731Z,368.00
2023-04-07T11:38:40.772Z,367.00
2023-04-07T11:39:40.840Z,368.00
2023-04-07T11:40:40.889Z,370.00
2023-04-07T11:41:40.952Z,372.00
2023-04-07T11:42:41.005Z,372.00
2023-04-07T11:43:41.044Z,370.00
2023-04-07T11:44:41.104Z,369.00
2023-04-07T11:45:41.126Z,372.00
2023-04-07T11:46:41.205Z,373.00
2023-04-07T11:47:41.241Z,375.00
2023-04-07T11:48:41.282Z,376.00
2023-04-07T11:49:41.306Z,377.00
2023-04-07T11:50:41.391Z,374.00
2023-04-07T11:51:41.413Z,373.00
2023-04-07T11:52:41.480Z,375.00
2023-04-07T11:53:41.516Z,374.00
2023-04-07T11:54:41.609Z,374.00
2023-04-07T11:55:41.626Z,373.00
2023-04-07T11:56:41.665Z,371.00
2023-04-07T11:57:41.711Z,370.00
2023-04-07T11:58:41.758Z,373.00
2023-04-07T11:59:41.866Z,372.00
2023-04-07T12:00:41.866Z,372.00
2023-04-07T12:01:42.080Z,369.00
2023-04-07T12:02:42.115Z,368.00
2023-04-07T12:03:42.104Z,372.00
2023-04-07T12:04:42.185Z,371.00
2023-04-07T12:05:42.149Z,373.00
2023-04-07T12:06:42.151Z,373.00
2023-04-07T12:07:42.222Z,370.00
2023-04-07T12:08:42.254Z,372.00
2023-04-07T12:09:42.292Z,373.00
2023-04-07T12:10:42.333Z,371.00
2023-04-07T12:11:42.330Z,369.00
2023-04-07T12:12:42.327Z,368.00
2023-04-07T12:13:42.300Z,369.00
2023-04-07T12:14:42.291Z,370.00
2023-04-07T12:15:42.292Z,371.00
2023-04-07T12:16:42.276Z,373.00
2023-04-07T12:17:42.295Z,377.00
2023-04-07T12:18:42.262Z,376.00
2023-04-07T12:19:42.302Z,377.00
2023-04-07T12:20:42.241Z,377.00
2023-04-07T12:21:42.244Z,375.00
2023-04-07T12:22:42.223Z,376.00
2023-04-07T12:23:42.217Z,376.00
2023-04-07T12:24:42.216Z,376.00
2023-04-07T12:25:42.209Z,377.00
2023-04-07T12:26:42.189Z,373.00
2023-04-07T12:27:43.763Z,371.00
2023-04-07T12:28:42.230Z,371.00
2023-04-07T12:29:42.257Z,374.00